createdAt,value
2022-10-31T00:00:40.873Z,3.70
2022-10-31T00:03:42.208Z,3.55
2022-10-31T00:06:43.475Z,3.45
2022-10-31T00:09:44.711Z,3.40
2022-10-31T00:12:45.932Z,3.17
2022-10-31T00:15:47.182Z,3.85
2022-10-31T00:18:49.174Z,3.53
2022-10-31T00:21:52.350Z,3.63
2022-10-31T00:24:53.585Z,3.42
2022-10-31T00:27:54.834Z,3.22
2022-10-31T00:30:58.638Z,3.20
2022-10-31T00:33:59.919Z,3.38
2022-10-31T00:37:01.167Z,2.85
2022-10-31T00:40:02.448Z,2.90
2022-10-31T00:43:04.403Z,3.40
2022-10-31T00:46:06.003Z,2.92
2022-10-31T00:49:07.236Z,3.22
2022-10-31T00:52:08.507Z,3.55
2022-10-31T00:55:09.725Z,3.55
2022-10-31T00:58:11.096Z,3.25
2022-10-31T01:01:12.464Z,3.53
2022-10-31T01:04:13.802Z,4.45
2022-10-31T01:07:15.230Z,2.70
2022-10-31T01:10:16.560Z,4.00
2022-10-31T01:13:17.865Z,3.33
2022-10-31T01:16:20.196Z,3.38
2022-10-31T01:19:21.412Z,3.60
2022-10-31T01:22:22.645Z,3.25
2022-10-31T01:25:23.928Z,2.67
2022-10-31T01:31:29.051Z,3.00
2022-10-31T01:34:30.296Z,3.65
2022-10-31T01:37:31.562Z,3.38
2022-10-31T01:40:32.789Z,3.40
2022-10-31T01:44:03.431Z,3.03
2022-10-31T01:47:07.512Z,2.88
2022-10-31T01:50:23.825Z,2.83
2022-10-31T01:53:26.930Z,3.80
2022-10-31T01:56:28.586Z,3.28
2022-10-31T01:59:31.753Z,2.78
2022-10-31T02:02:33.236Z,3.05
2022-10-31T02:05:34.753Z,3.40
2022-10-31T02:08:36.581Z,3.67
2022-10-31T02:11:38.088Z,3.38
2022-10-31T02:14:39.936Z,3.63
2022-10-31T02:17:41.193Z,3.35
2022-10-31T02:21:01.489Z,3.40
2022-10-31T02:24:21.737Z,3.67
2022-10-31T02:27:35.362Z,3.03
2022-10-31T02:30:48.387Z,3.33
2022-10-31T02:33:52.974Z,3.22
2022-10-31T02:40:07.754Z,3.22
2022-10-31T02:46:20.199Z,3.67
2022-10-31T02:49:21.413Z,3.03
2022-10-31T02:52:25.601Z,3.90
2022-10-31T02:55:26.808Z,3.10
2022-10-31T02:58:31.003Z,3.05
2022-10-31T03:01:35.539Z,3.30
2022-10-31T03:07:48.370Z,2.70
2022-10-31T03:11:03.711Z,3.83
2022-10-31T03:14:10.940Z,3.10
2022-10-31T03:17:18.405Z,3.05
2022-10-31T03:20:23.054Z,3.70
2022-10-31T03:26:25.924Z,2.92
2022-10-31T03:29:29.243Z,2.90
2022-10-31T03:32:35.258Z,3.75
2022-10-31T03:35:37.393Z,4.10
2022-10-31T03:38:39.530Z,3.88
2022-10-31T03:41:42.554Z,3.17
2022-10-31T03:44:47.567Z,3.10
2022-10-31T03:47:48.872Z,3.00
2022-10-31T03:50:53.210Z,3.28
2022-10-31T03:54:01.449Z,3.60
2022-10-31T03:57:17.129Z,3.22
2022-10-31T04:00:18.993Z,3.80
2022-10-31T04:03:23.592Z,3.35
2022-10-31T04:09:26.975Z,3.08
2022-10-31T04:12:30.216Z,3.13
2022-10-31T04:15:32.031Z,3.10
2022-10-31T04:18:33.498Z,3.20
2022-10-31T04:21:34.718Z,3.60
2022-10-31T04:24:37.885Z,3.25
2022-10-31T04:27:39.125Z,2.85
2022-10-31T04:30:40.349Z,3.30
2022-10-31T04:33:41.585Z,3.10
2022-10-31T04:36:42.817Z,2.88
2022-10-31T04:39:44.058Z,3.22
2022-10-31T04:42:45.291Z,4.03
2022-10-31T04:45:46.515Z,2.80
2022-10-31T04:48:47.747Z,3.03
2022-10-31T04:51:48.986Z,3.05
2022-10-31T04:54:50.275Z,3.72
2022-10-31T04:57:51.829Z,4.47
2022-10-31T05:00:56.289Z,6.22
2022-10-31T05:03:57.630Z,8.65
2022-10-31T05:06:58.863Z,8.32
2022-10-31T05:10:00.118Z,5.65
2022-10-31T05:13:02.729Z,4.78
2022-10-31T05:16:04.420Z,3.53
2022-10-31T05:19:05.656Z,3.42
2022-10-31T05:22:06.904Z,4.65
2022-10-31T05:25:08.301Z,4.32
2022-10-31T05:28:09.548Z,3.67
2022-10-31T05:31:10.868Z,4.15
2022-10-31T05:34:12.089Z,5.07
2022-10-31T05:37:13.307Z,4.47
2022-10-31T05:40:15.468Z,3.17
2022-10-31T05:43:16.731Z,3.63
2022-10-31T05:46:17.952Z,2.72
2022-10-31T05:49:19.226Z,3.30
2022-10-31T05:52:20.452Z,3.72
2022-10-31T05:55:21.692Z,4.07
2022-10-31T05:58:22.920Z,3.45
2022-10-31T06:01:24.293Z,4.10
2022-10-31T06:04:25.946Z,3.80
2022-10-31T06:07:27.340Z,3.85
2022-10-31T06:10:29.152Z,4.13
2022-10-31T06:13:30.468Z,3.90
2022-10-31T06:16:31.936Z,3.35
2022-10-31T06:19:33.297Z,6.55
2022-10-31T06:22:34.544Z,3.70
2022-10-31T06:25:36.148Z,3.60
2022-10-31T06:28:37.372Z,5.07
2022-10-31T06:31:38.701Z,4.32
2022-10-31T06:34:40.363Z,4.40
2022-10-31T06:37:43.394Z,4.55
2022-10-31T06:40:46.822Z,4.15
2022-10-31T06:43:48.270Z,4.20
2022-10-31T06:46:50.015Z,4.65
2022-10-31T06:49:51.257Z,4.70
2022-10-31T06:52:56.241Z,4.35
2022-10-31T06:55:57.613Z,4.60
2022-10-31T06:58:59.035Z,5.22
2022-10-31T07:02:00.571Z,4.72
2022-10-31T07:05:01.924Z,4.38
2022-10-31T07:08:04.661Z,4.78
2022-10-31T07:11:06.072Z,5.18
2022-10-31T07:14:07.366Z,4.80
2022-10-31T07:17:08.657Z,4.45
2022-10-31T07:20:10.101Z,4.80
2022-10-31T07:23:11.845Z,4.53
2022-10-31T07:26:13.086Z,5.72
2022-10-31T07:29:14.361Z,4.82
2022-10-31T07:32:15.732Z,4.32
2022-10-31T07:35:20.916Z,5.53
2022-10-31T07:38:22.289Z,4.35
2022-10-31T07:41:23.578Z,3.83
2022-10-31T07:44:24.829Z,4.68
2022-10-31T07:47:26.068Z,4.82
2022-10-31T07:50:28.583Z,4.43
2022-10-31T07:53:29.841Z,5.15
2022-10-31T07:56:31.087Z,4.70
2022-10-31T07:59:32.304Z,5.50
2022-10-31T08:02:33.649Z,5.65
2022-10-31T08:05:35.454Z,5.97
2022-10-31T08:08:38.422Z,5.20
2022-10-31T08:11:39.893Z,4.82
2022-10-31T08:14:41.118Z,4.72
2022-10-31T08:17:42.430Z,5.47
2022-10-31T08:20:44.307Z,4.38
2022-10-31T08:23:45.580Z,4.65
2022-10-31T08:26:46.835Z,4.88
2022-10-31T08:29:48.124Z,4.20
2022-10-31T08:32:57.898Z,3.88
2022-10-31T08:35:59.505Z,4.10
2022-10-31T08:39:02.225Z,4.18
2022-10-31T08:42:03.677Z,3.85
2022-10-31T08:45:05.210Z,3.88
2022-10-31T08:48:07.988Z,3.50
2022-10-31T08:51:16.445Z,3.97
2022-10-31T08:54:17.834Z,3.92
2022-10-31T08:57:19.319Z,3.72
2022-10-31T09:00:20.610Z,4.10
2022-10-31T09:03:23.531Z,3.63
2022-10-31T09:06:24.799Z,3.55
2022-10-31T09:09:26.066Z,3.78
2022-10-31T09:12:27.318Z,3.72
2022-10-31T09:15:29.021Z,3.50
2022-10-31T09:18:30.329Z,3.47
2022-10-31T09:21:31.557Z,4.65
2022-10-31T09:24:32.867Z,4.15
2022-10-31T09:27:34.235Z,4.18
2022-10-31T09:30:36.012Z,4.55
2022-10-31T09:33:38.058Z,4.03
2022-10-31T09:36:39.375Z,4.63
2022-10-31T09:39:40.610Z,4.78
2022-10-31T09:42:53.356Z,4.78
2022-10-31T09:46:13.293Z,4.32
2022-10-31T09:49:20.698Z,4.30
2022-10-31T09:52:25.568Z,3.78
2022-10-31T09:55:32.855Z,4.25
2022-10-31T09:58:38.225Z,4.63
2022-10-31T10:01:43.813Z,4.43
2022-10-31T10:05:05.498Z,5.13
2022-10-31T10:08:16.422Z,4.85
2022-10-31T10:11:33.938Z,5.97
2022-10-31T10:14:41.130Z,5.00
2022-10-31T10:18:05.496Z,4.85
2022-10-31T10:21:12.754Z,5.10
2022-10-31T10:24:34.240Z,5.18
2022-10-31T10:27:50.520Z,5.45
2022-10-31T10:30:55.902Z,4.78
2022-10-31T10:34:03.507Z,5.03
2022-10-31T10:37:25.003Z,4.43
2022-10-31T10:40:28.097Z,4.97
2022-10-31T10:43:38.769Z,4.78
2022-10-31T10:47:03.244Z,5.32
2022-10-31T10:50:24.780Z,5.32
2022-10-31T10:53:49.834Z,4.90
2022-10-31T10:57:09.702Z,5.03
2022-10-31T11:00:24.485Z,5.20
2022-10-31T11:03:25.779Z,5.40
2022-10-31T11:06:27.188Z,5.07
2022-10-31T11:09:28.608Z,5.75
2022-10-31T11:12:31.141Z,4.88
2022-10-31T11:15:36.051Z,4.93
2022-10-31T11:18:45.712Z,5.38
2022-10-31T11:21:53.912Z,5.57
2022-10-31T11:24:55.717Z,5.63
2022-10-31T11:28:04.439Z,5.32
2022-10-31T11:31:08.163Z,5.55
2022-10-31T11:34:17.068Z,5.53
2022-10-31T11:37:21.209Z,6.38
2022-10-31T11:40:24.271Z,6.18
2022-10-31T11:43:25.935Z,5.75
2022-10-31T11:46:39.706Z,5.30
2022-10-31T11:49:42.340Z,6.30
2022-10-31T11:52:43.682Z,6.38
2022-10-31T11:55:46.627Z,6.68
2022-10-31T11:58:57.896Z,6.03
2022-10-31T12:02:00.707Z,5.43
2022-10-31T12:05:24.487Z,5.07
2022-10-31T12:08:27.988Z,5.50
2022-10-31T12:11:29.311Z,5.38
2022-10-31T12:14:45.832Z,5.43
2022-10-31T12:17:52.114Z,5.63
2022-10-31T12:20:56.384Z,4.78
2022-10-31T12:24:15.972Z,6.13
2022-10-31T12:27:29.404Z,6.38
2022-10-31T12:30:42.777Z,4.88
2022-10-31T12:33:50.119Z,5.53
2022-10-31T12:37:00.932Z,5.50
2022-10-31T12:40:07.902Z,4.95
2022-10-31T12:43:18.327Z,4.38
2022-10-31T12:46:38.170Z,5.05
2022-10-31T12:49:39.432Z,5.10
2022-10-31T12:52:58.925Z,5.03
2022-10-31T12:56:08.869Z,5.03
2022-10-31T12:59:10.059Z,5.25
2022-10-31T13:02:27.581Z,5.43
2022-10-31T13:05:32.009Z,4.50
2022-10-31T13:08:41.606Z,5.18
2022-10-31T13:12:03.134Z,5.82
2022-10-31T13:15:06.829Z,5.53
2022-10-31T13:18:13.628Z,5.70
2022-10-31T13:21:19.076Z,5.45
2022-10-31T13:24:27.874Z,4.60
2022-10-31T13:27:31.404Z,5.07
2022-10-31T13:30:34.171Z,4.50
2022-10-31T13:33:41.635Z,4.82
2022-10-31T13:36:42.868Z,5.63
2022-10-31T13:39:59.521Z,4.97
2022-10-31T13:43:07.563Z,5.63
2022-10-31T13:46:25.290Z,5.65
2022-10-31T13:49:29.329Z,4.80
2022-10-31T13:52:30.676Z,4.88
2022-10-31T13:55:35.355Z,4.60
2022-10-31T13:58:37.057Z,5.00
2022-10-31T14:01:47.051Z,4.65
2022-10-31T14:08:03.369Z,4.57
2022-10-31T14:11:05.389Z,5.07
2022-10-31T14:14:12.268Z,3.95
2022-10-31T14:17:18.359Z,4.75
2022-10-31T14:20:19.625Z,4.45
2022-10-31T14:23:45.460Z,5.28
2022-10-31T14:26:58.361Z,4.53
2022-10-31T14:30:08.106Z,4.07
2022-10-31T14:33:16.546Z,4.53
2022-10-31T14:36:36.846Z,4.70
2022-10-31T14:39:38.133Z,4.05
2022-10-31T14:42:58.002Z,4.13
2022-10-31T14:46:11.538Z,4.43
2022-10-31T14:49:28.460Z,3.85
2022-10-31T14:55:31.093Z,4.40
2022-10-31T14:58:37.971Z,4.10
2022-10-31T15:01:40.799Z,4.55
2022-10-31T15:04:44.712Z,4.22
2022-10-31T15:07:51.720Z,4.22
2022-10-31T15:10:53.383Z,4.15
2022-10-31T15:13:55.925Z,5.22
2022-10-31T15:17:02.362Z,4.38
2022-10-31T15:20:04.494Z,5.00
2022-10-31T15:23:06.615Z,4.47
2022-10-31T15:26:08.438Z,4.50
2022-10-31T15:29:14.142Z,5.20
2022-10-31T15:32:26.075Z,5.30
2022-10-31T15:35:31.383Z,6.30
2022-10-31T15:38:33.732Z,4.88
2022-10-31T15:41:54.215Z,5.03
2022-10-31T15:45:01.729Z,4.90
2022-10-31T15:48:05.638Z,4.03
2022-10-31T15:51:07.319Z,4.97
2022-10-31T15:54:13.429Z,5.28
2022-10-31T15:57:14.837Z,4.63
2022-10-31T16:00:25.312Z,4.65
2022-10-31T16:03:30.648Z,5.18
2022-10-31T16:06:33.481Z,7.70
2022-10-31T16:09:34.745Z,5.35
2022-10-31T16:12:37.727Z,5.80
2022-10-31T16:15:47.033Z,4.68
2022-10-31T16:18:49.056Z,5.30
2022-10-31T16:21:53.720Z,4.80
2022-10-31T16:24:57.684Z,5.18
2022-10-31T16:28:02.399Z,5.95
2022-10-31T16:31:13.636Z,5.03
2022-10-31T16:34:26.065Z,6.85
2022-10-31T16:37:28.133Z,5.40
2022-10-31T16:40:29.718Z,5.07
2022-10-31T16:43:30.955Z,4.82
2022-10-31T16:46:32.221Z,5.95
2022-10-31T16:49:33.470Z,5.43
2022-10-31T16:52:38.517Z,5.45
2022-10-31T16:55:55.832Z,5.15
2022-10-31T16:58:57.100Z,5.57
2022-10-31T17:01:58.964Z,4.30
2022-10-31T17:05:00.349Z,4.35
2022-10-31T17:08:02.162Z,4.25
2022-10-31T17:11:03.824Z,4.47
2022-10-31T17:14:05.232Z,4.50
2022-10-31T17:17:06.541Z,4.82
2022-10-31T17:20:27.494Z,4.35
2022-10-31T17:23:29.254Z,4.78
2022-10-31T17:26:30.557Z,4.88
2022-10-31T17:29:32.508Z,5.90
2022-10-31T17:32:33.835Z,4.63
2022-10-31T17:35:36.180Z,4.35
2022-10-31T17:38:38.238Z,5.75
2022-10-31T17:41:39.483Z,5.70
2022-10-31T17:44:40.722Z,6.30
2022-10-31T17:47:42.142Z,5.97
2022-10-31T17:50:43.376Z,8.43
2022-10-31T17:53:44.629Z,6.82
2022-10-31T17:56:45.899Z,6.90
2022-10-31T17:59:47.132Z,7.40
2022-10-31T18:02:48.361Z,7.78
2022-10-31T18:05:56.829Z,7.07
2022-10-31T18:09:02.007Z,8.57
2022-10-31T18:12:03.409Z,6.82
2022-10-31T18:15:04.867Z,6.40
2022-10-31T18:18:07.197Z,6.18
2022-10-31T18:21:08.436Z,5.68
2022-10-31T18:24:09.847Z,6.03
2022-10-31T18:27:11.213Z,4.65
2022-10-31T18:30:12.623Z,4.25
2022-10-31T18:33:13.966Z,5.07
2022-10-31T18:36:15.281Z,5.50
2022-10-31T18:39:16.663Z,4.95
2022-10-31T18:42:17.908Z,5.22
2022-10-31T18:45:32.621Z,5.40
2022-10-31T18:48:41.099Z,4.78
2022-10-31T18:51:42.362Z,5.18
2022-10-31T18:54:44.665Z,6.13
2022-10-31T18:57:46.661Z,5.68
2022-10-31T19:00:48.066Z,5.38
2022-10-31T19:03:53.116Z,5.35
2022-10-31T19:06:55.005Z,5.55
2022-10-31T19:09:56.373Z,5.85
2022-10-31T19:12:57.772Z,5.53
2022-10-31T19:16:12.003Z,5.40
2022-10-31T19:19:13.271Z,5.88
2022-10-31T19:22:14.563Z,5.53
2022-10-31T19:25:15.959Z,6.32
2022-10-31T19:28:17.177Z,5.75
2022-10-31T19:31:18.914Z,5.60
2022-10-31T19:34:20.169Z,6.47
2022-10-31T19:37:21.484Z,6.50
2022-10-31T19:40:22.776Z,5.22
2022-10-31T19:49:51.609Z,6.55
2022-10-31T19:52:53.077Z,6.57
2022-10-31T19:55:54.403Z,7.78
2022-10-31T19:58:56.736Z,9.23
2022-10-31T20:01:58.096Z,6.80
2022-10-31T20:04:59.870Z,5.72
2022-10-31T20:08:01.107Z,5.97
2022-10-31T20:11:02.770Z,5.85
2022-10-31T20:14:04.251Z,6.65
2022-10-31T20:17:05.705Z,6.53
2022-10-31T20:20:08.879Z,6.25
2022-10-31T20:23:10.353Z,7.10
2022-10-31T20:26:13.140Z,5.88
2022-10-31T20:29:16.055Z,6.60
2022-10-31T20:32:17.615Z,6.15
2022-10-31T20:35:19.007Z,6.40
2022-10-31T20:38:20.292Z,6.22
2022-10-31T20:41:21.818Z,6.78
2022-10-31T20:44:23.123Z,6.10
2022-10-31T20:47:25.922Z,6.57
2022-10-31T20:50:28.162Z,5.60
2022-10-31T20:53:29.469Z,6.00
2022-10-31T20:56:30.724Z,5.55
2022-10-31T20:59:32.078Z,5.53
2022-10-31T21:02:33.941Z,5.88
2022-10-31T21:05:35.319Z,5.03
2022-10-31T21:08:36.956Z,5.75
2022-10-31T21:11:38.220Z,5.38
2022-10-31T21:14:39.518Z,6.00
2022-10-31T21:17:41.468Z,6.25
2022-10-31T21:20:43.810Z,5.50
2022-10-31T21:23:45.660Z,5.50
2022-10-31T21:26:49.021Z,6.32
2022-10-31T21:29:50.290Z,6.10
2022-10-31T21:32:51.561Z,5.85
2022-10-31T21:35:52.841Z,7.15
2022-10-31T21:38:55.194Z,6.13
2022-10-31T21:41:56.420Z,5.88
2022-10-31T21:44:57.677Z,5.72
2022-10-31T21:47:59.793Z,7.65
2022-10-31T21:51:04.176Z,6.80
2022-10-31T21:54:24.255Z,6.53
2022-10-31T21:57:25.511Z,8.07
2022-10-31T22:00:26.785Z,6.40
2022-10-31T22:03:28.113Z,6.22
2022-10-31T22:06:32.401Z,6.22
2022-10-31T22:09:33.627Z,6.07
2022-10-31T22:12:34.866Z,6.63
2022-10-31T22:15:36.214Z,6.82
2022-10-31T22:18:37.992Z,6.30
2022-10-31T22:21:40.758Z,6.57
2022-10-31T22:24:42.068Z,6.38
2022-10-31T22:27:43.340Z,6.68
2022-10-31T22:30:44.580Z,6.28
2022-10-31T22:33:46.561Z,6.22
2022-10-31T22:36:47.828Z,6.53
2022-10-31T22:39:49.085Z,6.93
2022-10-31T22:42:50.344Z,6.38
2022-10-31T22:46:00.634Z,7.90
2022-10-31T22:49:06.366Z,7.28
2022-10-31T22:52:07.782Z,8.15
2022-10-31T22:55:09.260Z,8.70
2022-10-31T22:58:10.610Z,7.22
2022-10-31T23:01:16.094Z,7.25
2022-10-31T23:04:17.542Z,7.93
2022-10-31T23:07:23.028Z,7.80
2022-10-31T23:10:33.005Z,8.35
2022-10-31T23:13:53.117Z,6.78
2022-10-31T23:16:55.138Z,6.80
2022-10-31T23:19:56.363Z,7.72
2022-10-31T23:22:57.586Z,7.28
2022-10-31T23:26:17.416Z,8.23
2022-10-31T23:29:18.666Z,7.68
2022-10-31T23:32:21.166Z,7.35
2022-10-31T23:35:22.397Z,8.43
2022-10-31T23:38:23.634Z,7.63
2022-10-31T23:41:24.926Z,8.23
2022-10-31T23:44:26.216Z,8.27
2022-10-31T23:47:28.517Z,7.45
2022-10-31T23:50:29.797Z,7.35
2022-10-31T23:53:31.071Z,7.60
2022-10-31T23:56:32.461Z,7.25
2022-10-31T23:59:33.703Z,8.50
